createdAt,value
2023-05-20T00:01:30.011Z,14.71
2023-05-20T00:03:57.937Z,14.68
2023-05-20T00:06:25.151Z,14.66
2023-05-20T00:08:52.871Z,14.64
2023-05-20T00:11:19.942Z,14.59
2023-05-20T00:13:47.043Z,14.55
2023-05-20T00:16:14.336Z,14.54
2023-05-20T00:18:41.522Z,14.51
2023-05-20T00:21:08.532Z,14.50
2023-05-20T00:23:35.543Z,14.50
2023-05-20T00:26:08.536Z,14.52
2023-05-20T00:28:35.648Z,14.51
2023-05-20T00:31:02.813Z,14.51
2023-05-20T00:33:29.707Z,14.50
2023-05-20T00:35:56.596Z,14.51
2023-05-20T00:38:23.533Z,14.50
2023-05-20T00:40:50.602Z,14.51
2023-05-20T00:43:17.423Z,14.51
2023-05-20T00:45:44.364Z,14.47
2023-05-20T00:48:11.586Z,14.44
2023-05-20T00:50:39.163Z,14.37
2023-05-20T00:53:07.016Z,14.39
2023-05-20T00:55:34.307Z,14.36
2023-05-20T00:58:01.476Z,14.34
2023-05-20T01:00:28.746Z,14.29
2023-05-20T01:02:57.526Z,14.22
2023-05-20T01:05:25.197Z,14.21
2023-05-20T01:07:52.165Z,14.20
2023-05-20T01:10:19.345Z,14.16
2023-05-20T01:12:52.895Z,14.12
2023-05-20T01:15:22.491Z,14.12
2023-05-20T01:17:53.129Z,14.12
2023-05-20T01:20:21.281Z,14.10
2023-05-20T01:22:52.830Z,14.08
2023-05-20T01:25:19.854Z,14.06
2023-05-20T01:27:49.815Z,14.01
2023-05-20T01:30:17.955Z,14.00
2023-05-20T01:33:09.341Z,13.86
2023-05-20T01:35:37.055Z,13.94
2023-05-20T01:38:06.359Z,13.91
2023-05-20T01:40:34.737Z,13.91
2023-05-20T01:43:03.575Z,13.86
2023-05-20T01:45:32.670Z,13.85
2023-05-20T01:48:00.188Z,13.85
2023-05-20T01:50:27.227Z,13.83
2023-05-20T01:52:54.256Z,13.84
2023-05-20T01:55:21.171Z,13.82
2023-05-20T01:57:48.265Z,13.79
2023-05-20T02:00:15.430Z,13.77
2023-05-20T02:02:44.427Z,13.75
2023-05-20T02:05:13.004Z,13.70
2023-05-20T02:07:44.471Z,13.67
2023-05-20T02:10:11.856Z,13.66
2023-05-20T02:12:38.880Z,13.64
2023-05-20T02:15:07.579Z,13.61
2023-05-20T02:17:36.138Z,13.58
2023-05-20T02:20:22.921Z,13.56
2023-05-20T02:22:49.784Z,13.56
2023-05-20T02:25:16.667Z,13.54
2023-05-20T02:27:44.777Z,13.52
2023-05-20T02:30:12.486Z,13.48
2023-05-20T02:32:40.000Z,13.44
2023-05-20T02:35:07.215Z,13.40
2023-05-20T02:37:34.560Z,13.41
2023-05-20T02:40:01.720Z,13.40
2023-05-20T02:42:32.196Z,13.37
2023-05-20T02:44:59.449Z,13.36
2023-05-20T02:47:27.382Z,13.35
2023-05-20T02:49:54.800Z,13.38
2023-05-20T02:52:22.250Z,13.39
2023-05-20T02:54:49.500Z,13.40
2023-05-20T02:57:16.852Z,13.41
2023-05-20T02:59:44.034Z,13.41
2023-05-20T03:02:11.072Z,13.36
2023-05-20T03:04:41.127Z,13.35
2023-05-20T03:07:09.137Z,13.36
2023-05-20T03:09:36.766Z,13.35
2023-05-20T03:12:05.134Z,13.38
2023-05-20T03:14:32.543Z,13.37
2023-05-20T03:17:00.642Z,13.39
2023-05-20T03:19:27.570Z,13.41
2023-05-20T03:21:54.877Z,13.40
2023-05-20T03:24:23.585Z,13.38
2023-05-20T03:26:51.912Z,13.37
2023-05-20T03:29:19.565Z,13.42
2023-05-20T03:31:47.183Z,13.45
2023-05-20T03:34:14.519Z,13.48
2023-05-20T03:36:42.105Z,13.57
2023-05-20T03:39:09.374Z,13.67
2023-05-20T03:41:38.201Z,13.79
2023-05-20T03:44:05.635Z,13.89
2023-05-20T03:46:34.380Z,13.96
2023-05-20T03:49:04.713Z,14.05
2023-05-20T03:51:31.972Z,14.14
2023-05-20T03:54:05.257Z,14.20
2023-05-20T03:56:32.401Z,14.24
2023-05-20T03:59:00.336Z,14.22
2023-05-20T04:01:27.312Z,14.28
2023-05-20T04:03:54.377Z,14.33
2023-05-20T04:06:22.730Z,14.42
2023-05-20T04:08:51.129Z,14.56
2023-05-20T04:11:21.564Z,14.72
2023-05-20T04:13:48.849Z,14.86
2023-05-20T04:16:16.115Z,15.00
2023-05-20T04:18:46.100Z,15.10
2023-05-20T04:21:13.476Z,15.22
2023-05-20T04:23:40.476Z,15.31
2023-05-20T04:26:07.412Z,15.40
2023-05-20T04:28:35.214Z,15.41
2023-05-20T04:31:05.434Z,15.44
2023-05-20T04:33:39.965Z,15.50
2023-05-20T04:36:12.662Z,15.54
2023-05-20T04:38:42.460Z,15.32
2023-05-20T04:41:09.500Z,15.76
2023-05-20T04:43:38.962Z,15.93
2023-05-20T04:46:06.762Z,16.04
2023-05-20T04:48:35.737Z,16.15
2023-05-20T04:51:03.324Z,16.24
2023-05-20T04:53:34.035Z,16.36
2023-05-20T04:56:02.982Z,16.38
2023-05-20T04:58:33.634Z,16.49
2023-05-20T05:01:01.575Z,16.55
2023-05-20T05:03:29.134Z,16.67
2023-05-20T05:06:01.036Z,16.72
2023-05-20T05:08:28.906Z,16.90
2023-05-20T05:10:55.798Z,17.05
2023-05-20T05:13:23.934Z,17.25
2023-05-20T05:16:01.954Z,17.40
2023-05-20T05:18:30.402Z,17.56
2023-05-20T05:21:01.949Z,17.75
2023-05-20T05:23:29.023Z,18.25
2023-05-20T05:25:56.164Z,18.70
2023-05-20T05:28:23.486Z,18.90
2023-05-20T05:30:51.217Z,19.02
2023-05-20T05:33:18.337Z,19.14
2023-05-20T05:35:45.322Z,19.43
2023-05-20T05:38:13.117Z,19.92
2023-05-20T05:40:40.153Z,20.85
2023-05-20T05:43:07.339Z,22.35
2023-05-20T05:45:35.574Z,23.69
2023-05-20T05:48:02.507Z,24.81
2023-05-20T05:50:30.674Z,25.49
2023-05-20T05:52:57.602Z,26.03
2023-05-20T05:55:26.334Z,27.03
2023-05-20T05:57:54.828Z,27.67
2023-05-20T06:00:22.734Z,28.38
2023-05-20T06:02:49.820Z,29.31
2023-05-20T06:05:33.021Z,29.74
2023-05-20T06:08:00.529Z,30.23
2023-05-20T06:10:27.608Z,29.82
2023-05-20T06:12:56.878Z,29.59
2023-05-20T06:15:26.154Z,29.45
2023-05-20T06:17:53.183Z,29.88
2023-05-20T06:20:21.674Z,30.35
2023-05-20T06:22:49.176Z,29.62
2023-05-20T06:25:16.349Z,28.30
2023-05-20T06:27:43.426Z,27.08
2023-05-20T06:30:13.535Z,26.27
2023-05-20T06:32:40.870Z,25.68
2023-05-20T06:35:08.680Z,25.48
2023-05-20T06:37:35.974Z,26.39
2023-05-20T06:40:02.936Z,27.61
2023-05-20T06:42:32.886Z,27.89
2023-05-20T06:45:04.536Z,28.56
2023-05-20T06:47:53.455Z,27.84
2023-05-20T06:50:21.185Z,27.17
2023-05-20T06:52:48.101Z,27.26
2023-05-20T06:55:16.180Z,28.00
2023-05-20T06:57:43.507Z,28.82
2023-05-20T07:00:11.058Z,28.85
2023-05-20T07:02:42.007Z,28.75
2023-05-20T07:05:10.569Z,28.93
2023-05-20T07:07:37.585Z,29.37
2023-05-20T07:10:07.110Z,29.51
2023-05-20T07:12:36.533Z,29.59
2023-05-20T07:15:05.306Z,29.63
2023-05-20T07:17:33.764Z,29.77
2023-05-20T07:20:00.826Z,29.57
2023-05-20T07:22:28.728Z,28.86
2023-05-20T07:25:01.513Z,28.62
2023-05-20T07:27:29.298Z,28.53
2023-05-20T07:29:56.516Z,28.69
2023-05-20T07:32:23.448Z,28.19
2023-05-20T07:34:50.838Z,28.36
2023-05-20T07:37:18.170Z,28.67
2023-05-20T07:39:45.609Z,28.81
2023-05-20T07:42:12.445Z,28.84
2023-05-20T07:44:42.527Z,28.73
2023-05-20T07:47:10.090Z,28.73
2023-05-20T07:49:37.572Z,28.78
2023-05-20T07:52:04.656Z,28.68
2023-05-20T07:54:35.225Z,28.84
2023-05-20T07:57:03.162Z,28.60
2023-05-20T07:59:31.089Z,28.49
2023-05-20T08:01:58.963Z,28.67
2023-05-20T08:04:27.752Z,28.19
2023-05-20T08:06:55.917Z,28.27
2023-05-20T08:09:40.067Z,28.74
2023-05-20T08:12:07.809Z,28.54
2023-05-20T08:14:35.054Z,28.66
2023-05-20T08:17:03.282Z,28.68
2023-05-20T08:19:30.826Z,28.69
2023-05-20T08:21:58.070Z,28.82
2023-05-20T08:24:25.083Z,28.78
2023-05-20T08:26:52.028Z,28.73
2023-05-20T08:29:20.483Z,28.85
2023-05-20T08:31:47.365Z,29.02
2023-05-20T08:34:15.033Z,29.02
2023-05-20T08:36:45.284Z,28.87
2023-05-20T08:39:12.564Z,28.40
2023-05-20T08:41:40.236Z,28.20
2023-05-20T08:44:09.851Z,27.97
2023-05-20T08:46:37.164Z,27.48
2023-05-20T08:49:04.471Z,27.45
2023-05-20T08:51:36.289Z,27.17
2023-05-20T08:54:03.671Z,27.05
2023-05-20T08:56:31.705Z,27.27
2023-05-20T08:58:58.661Z,27.56
2023-05-20T09:01:28.805Z,27.43
2023-05-20T09:03:56.148Z,27.32
2023-05-20T09:06:24.230Z,27.52
2023-05-20T09:08:51.948Z,27.62
2023-05-20T09:11:19.762Z,26.94
2023-05-20T09:13:46.591Z,26.61
2023-05-20T09:16:13.651Z,26.54
2023-05-20T09:18:41.051Z,26.56
2023-05-20T09:21:10.124Z,26.66
2023-05-20T09:23:40.044Z,26.86
2023-05-20T09:26:07.069Z,27.01
2023-05-20T09:28:36.128Z,27.10
2023-05-20T09:31:03.120Z,27.07
2023-05-20T09:33:32.219Z,26.91
2023-05-20T09:36:10.608Z,26.71
2023-05-20T09:38:41.690Z,26.76
2023-05-20T09:41:13.908Z,26.75
2023-05-20T09:43:42.070Z,26.56
2023-05-20T09:46:09.358Z,26.49
2023-05-20T09:48:37.714Z,26.46
2023-05-20T09:51:06.896Z,26.22
2023-05-20T09:53:33.844Z,26.16
2023-05-20T09:56:01.490Z,26.04
2023-05-20T09:58:30.611Z,25.75
2023-05-20T10:00:57.760Z,25.78
2023-05-20T10:03:28.261Z,25.83
2023-05-20T10:06:25.826Z,25.73
2023-05-20T10:09:07.645Z,25.65
2023-05-20T10:11:43.823Z,25.47
2023-05-20T10:14:22.852Z,25.47
2023-05-20T10:17:10.871Z,25.33
2023-05-20T10:19:38.041Z,25.29
2023-05-20T10:22:07.417Z,25.35
2023-05-20T10:24:41.353Z,25.19
2023-05-20T10:27:17.905Z,25.11
2023-05-20T10:29:55.808Z,25.00
2023-05-20T10:32:31.563Z,25.05
2023-05-20T10:35:06.035Z,25.06
2023-05-20T10:37:41.951Z,25.05
2023-05-20T10:40:15.217Z,25.01
2023-05-20T10:42:45.142Z,25.06
2023-05-20T10:45:12.546Z,24.98
2023-05-20T10:47:59.991Z,24.72
2023-05-20T10:50:35.441Z,24.73
2023-05-20T10:53:08.201Z,24.76
2023-05-20T10:55:41.668Z,24.83
2023-05-20T10:58:10.190Z,24.93
2023-05-20T11:00:38.104Z,24.98
2023-05-20T11:03:07.160Z,25.03
2023-05-20T11:05:34.756Z,25.17
2023-05-20T11:08:08.045Z,25.30
2023-05-20T11:10:38.335Z,25.23
2023-05-20T11:13:06.030Z,25.14
2023-05-20T11:15:34.396Z,25.16
2023-05-20T11:18:03.893Z,24.94
2023-05-20T11:20:35.486Z,24.76
2023-05-20T11:23:03.799Z,24.64
2023-05-20T11:25:32.063Z,24.66
2023-05-20T11:28:00.514Z,24.66
2023-05-20T11:30:27.485Z,24.75
2023-05-20T11:32:58.804Z,24.79
2023-05-20T11:35:29.027Z,24.97
2023-05-20T11:37:58.334Z,24.83
2023-05-20T11:40:30.562Z,24.84
2023-05-20T11:43:01.813Z,24.79
2023-05-20T11:45:55.999Z,24.70
2023-05-20T11:48:24.071Z,24.85
2023-05-20T11:50:52.972Z,24.84
2023-05-20T11:53:23.921Z,24.70
2023-05-20T11:55:59.222Z,24.71
2023-05-20T11:58:27.295Z,24.81
2023-05-20T12:01:02.300Z,24.87
2023-05-20T12:03:37.078Z,24.84
2023-05-20T12:06:04.744Z,24.87
2023-05-20T12:08:31.960Z,24.85
2023-05-20T12:10:58.816Z,24.85
2023-05-20T12:13:25.839Z,24.79
2023-05-20T12:15:52.895Z,24.78
2023-05-20T12:18:19.918Z,24.89
2023-05-20T12:20:46.847Z,24.98
2023-05-20T12:23:13.729Z,25.02
2023-05-20T12:25:40.836Z,24.94
2023-05-20T12:28:08.292Z,24.93
2023-05-20T12:30:35.504Z,24.94
2023-05-20T12:33:03.875Z,24.87
2023-05-20T12:35:42.240Z,24.87
2023-05-20T12:38:09.859Z,25.06
2023-05-20T12:40:37.885Z,25.10
2023-05-20T12:43:06.017Z,24.92
2023-05-20T12:45:32.922Z,24.84
2023-05-20T12:48:01.609Z,24.81
2023-05-20T12:50:28.803Z,24.85
2023-05-20T12:52:55.757Z,24.89
2023-05-20T12:55:22.925Z,25.02
2023-05-20T12:57:50.988Z,25.01
2023-05-20T13:00:18.382Z,24.92
2023-05-20T13:02:45.599Z,24.95
2023-05-20T13:05:13.428Z,24.97
2023-05-20T13:07:40.725Z,24.97
2023-05-20T13:10:08.615Z,25.03
2023-05-20T13:12:36.307Z,25.02
2023-05-20T13:15:04.341Z,25.02
2023-05-20T13:17:34.405Z,25.03
2023-05-20T13:20:01.595Z,25.02
2023-05-20T13:22:31.779Z,24.94
2023-05-20T13:24:58.756Z,24.96
2023-05-20T13:27:27.003Z,24.92
2023-05-20T13:29:56.185Z,24.86
2023-05-20T13:32:23.374Z,24.80
2023-05-20T13:34:50.948Z,24.81
2023-05-20T13:37:17.932Z,24.92
2023-05-20T13:39:46.694Z,24.97
2023-05-20T13:42:13.648Z,25.00
2023-05-20T13:44:42.160Z,24.98
2023-05-20T13:47:09.356Z,24.97
2023-05-20T13:49:36.862Z,24.97
2023-05-20T13:52:04.264Z,24.98
2023-05-20T13:54:32.109Z,25.04
2023-05-20T13:56:59.254Z,25.11
2023-05-20T13:59:29.412Z,25.23
2023-05-20T14:01:56.547Z,25.23
2023-05-20T14:04:25.245Z,25.27
2023-05-20T14:06:53.465Z,25.33
2023-05-20T14:09:20.286Z,25.39
2023-05-20T14:11:47.170Z,25.36
2023-05-20T14:14:14.292Z,25.29
2023-05-20T14:16:41.170Z,25.25
2023-05-20T14:19:09.166Z,25.19
2023-05-20T14:21:36.335Z,25.15
2023-05-20T14:24:03.281Z,25.16
2023-05-20T14:26:30.170Z,25.10
2023-05-20T14:28:57.041Z,25.09
2023-05-20T14:31:23.929Z,25.02
2023-05-20T14:33:50.866Z,25.06
2023-05-20T14:36:18.145Z,25.10
2023-05-20T14:38:45.412Z,25.14
2023-05-20T14:41:13.106Z,25.17
2023-05-20T14:43:39.974Z,25.18
2023-05-20T14:46:06.958Z,25.21
2023-05-20T14:48:33.883Z,25.17
2023-05-20T14:51:01.042Z,25.19
2023-05-20T14:53:27.874Z,25.19
2023-05-20T14:55:54.779Z,25.22
2023-05-20T14:58:21.685Z,25.21
2023-05-20T15:00:48.816Z,25.23
2023-05-20T15:03:15.977Z,25.25
2023-05-20T15:05:43.197Z,25.20
2023-05-20T15:08:10.283Z,25.19
2023-05-20T15:10:37.444Z,25.17
2023-05-20T15:13:04.741Z,25.17
2023-05-20T15:15:31.885Z,25.19
2023-05-20T15:17:59.317Z,25.23
2023-05-20T15:20:26.478Z,25.26
2023-05-20T15:22:53.943Z,25.35
2023-05-20T15:25:20.845Z,25.42
2023-05-20T15:27:48.709Z,25.38
2023-05-20T15:30:15.880Z,25.30
2023-05-20T15:32:43.108Z,25.25
2023-05-20T15:35:10.305Z,25.15
2023-05-20T15:37:38.205Z,25.07
2023-05-20T15:40:05.427Z,25.01
2023-05-20T15:42:32.927Z,25.00
2023-05-20T15:44:59.877Z,24.96
2023-05-20T15:47:26.844Z,24.93
2023-05-20T15:49:54.676Z,24.89
2023-05-20T15:52:21.742Z,24.87
2023-05-20T15:54:48.760Z,24.85
2023-05-20T15:57:15.791Z,24.85
2023-05-20T15:59:42.640Z,24.85
2023-05-20T16:02:10.637Z,24.81
2023-05-20T16:04:38.821Z,24.81
2023-05-20T16:07:06.363Z,24.76
2023-05-20T16:09:33.188Z,24.76
2023-05-20T16:12:00.083Z,24.74
2023-05-20T16:14:26.994Z,24.75
2023-05-20T16:16:53.927Z,24.78
2023-05-20T16:19:21.008Z,24.80
2023-05-20T16:21:47.954Z,24.85
2023-05-20T16:24:15.487Z,24.88
2023-05-20T16:26:42.493Z,24.93
2023-05-20T16:29:09.430Z,24.96
2023-05-20T16:31:37.464Z,25.00
2023-05-20T16:34:06.635Z,25.01
2023-05-20T16:36:34.667Z,25.09
2023-05-20T16:39:01.608Z,25.03
2023-05-20T16:41:28.605Z,25.03
2023-05-20T16:43:55.534Z,24.90
2023-05-20T16:46:22.546Z,24.81
2023-05-20T16:48:49.572Z,24.70
2023-05-20T16:51:17.183Z,24.60
2023-05-20T16:53:44.026Z,24.54
2023-05-20T16:56:11.029Z,24.46
2023-05-20T16:58:37.874Z,24.39
2023-05-20T17:01:04.826Z,24.34
2023-05-20T17:03:32.290Z,24.33
2023-05-20T17:05:59.167Z,24.24
2023-05-20T17:08:26.298Z,24.19
2023-05-20T17:10:54.356Z,24.09
2023-05-20T17:13:22.024Z,24.03
2023-05-20T17:15:48.934Z,23.94
2023-05-20T17:18:17.183Z,23.85
2023-05-20T17:20:44.158Z,23.76
2023-05-20T17:23:11.325Z,23.73
2023-05-20T17:25:39.150Z,23.62
2023-05-20T17:28:06.250Z,23.54
2023-05-20T17:30:33.821Z,23.45
2023-05-20T17:33:01.188Z,23.38
2023-05-20T17:35:28.307Z,23.33
2023-05-20T17:37:56.190Z,23.27
2023-05-20T17:40:23.098Z,23.22
2023-05-20T17:42:49.955Z,23.17
2023-05-20T17:45:16.895Z,23.12
2023-05-20T17:47:43.708Z,23.08
2023-05-20T17:50:10.996Z,23.03
2023-05-20T17:52:37.876Z,22.98
2023-05-20T17:55:05.736Z,22.94
2023-05-20T17:57:34.382Z,22.87
2023-05-20T18:00:02.338Z,22.81
2023-05-20T18:02:35.237Z,22.73
2023-05-20T18:05:02.250Z,22.69
2023-05-20T18:07:33.388Z,22.64
2023-05-20T18:10:00.225Z,22.57
2023-05-20T18:12:27.071Z,22.54
2023-05-20T18:14:54.087Z,22.48
2023-05-20T18:17:21.075Z,22.43
2023-05-20T18:19:48.037Z,22.37
2023-05-20T18:22:15.019Z,22.28
2023-05-20T18:24:42.661Z,22.25
2023-05-20T18:27:09.818Z,22.20
2023-05-20T18:29:36.959Z,22.12
2023-05-20T18:32:07.809Z,22.03
2023-05-20T18:34:34.986Z,21.99
2023-05-20T18:37:02.250Z,21.91
2023-05-20T18:39:29.164Z,21.86
2023-05-20T18:41:56.272Z,21.80
2023-05-20T18:44:23.218Z,21.75
2023-05-20T18:46:50.237Z,21.68
2023-05-20T18:49:17.228Z,21.60
2023-05-20T18:51:44.138Z,21.53
2023-05-20T18:54:11.113Z,21.47
2023-05-20T18:56:38.850Z,21.41
2023-05-20T18:59:05.825Z,21.35
2023-05-20T19:01:33.958Z,21.28
2023-05-20T19:04:01.161Z,21.23
2023-05-20T19:06:28.244Z,21.15
2023-05-20T19:08:55.285Z,21.09
2023-05-20T19:11:24.948Z,21.06
2023-05-20T19:13:52.511Z,20.99
2023-05-20T19:16:19.782Z,20.91
2023-05-20T19:18:46.670Z,20.84
2023-05-20T19:21:15.151Z,20.84
2023-05-20T19:23:42.264Z,20.78
2023-05-20T19:26:09.408Z,20.71
2023-05-20T19:28:36.678Z,20.71
2023-05-20T19:31:03.854Z,20.65
2023-05-20T19:33:31.037Z,20.62
2023-05-20T19:35:58.088Z,20.60
2023-05-20T19:38:25.222Z,20.54
2023-05-20T19:40:52.272Z,20.50
2023-05-20T19:43:19.146Z,20.44
2023-05-20T19:45:46.053Z,20.44
2023-05-20T19:48:13.008Z,20.38
2023-05-20T19:50:40.474Z,20.35
2023-05-20T19:53:08.015Z,20.33
2023-05-20T19:55:36.910Z,20.34
2023-05-20T19:58:06.157Z,20.29
2023-05-20T20:00:33.087Z,20.26
2023-05-20T20:03:06.038Z,20.23
2023-05-20T20:05:36.370Z,20.20
2023-05-20T20:08:06.691Z,20.18
2023-05-20T20:10:37.783Z,20.16
2023-05-20T20:13:06.017Z,20.14
2023-05-20T20:15:33.977Z,20.13
2023-05-20T20:18:04.839Z,20.09
2023-05-20T20:20:37.942Z,20.08
2023-05-20T20:23:07.293Z,19.73
2023-05-20T20:25:39.268Z,19.91
2023-05-20T20:28:13.771Z,19.91
2023-05-20T20:30:49.745Z,19.87
2023-05-20T20:33:16.964Z,19.83
2023-05-20T20:35:43.943Z,19.82
2023-05-20T20:38:15.046Z,19.80
2023-05-20T20:40:42.611Z,19.79
2023-05-20T20:43:20.577Z,19.78
2023-05-20T20:45:50.826Z,19.81
2023-05-20T20:48:19.333Z,19.80
2023-05-20T20:50:48.439Z,19.76
2023-05-20T20:53:17.174Z,19.74
2023-05-20T20:55:44.141Z,19.76
2023-05-20T20:58:11.217Z,19.74
2023-05-20T21:00:40.206Z,19.70
2023-05-20T21:03:08.301Z,19.69
2023-05-20T21:05:39.245Z,19.66
2023-05-20T21:08:08.329Z,19.62
2023-05-20T21:10:37.181Z,19.59
2023-05-20T21:13:04.458Z,19.58
2023-05-20T21:15:31.405Z,19.57
2023-05-20T21:17:58.382Z,19.53
2023-05-20T21:20:25.509Z,19.51
2023-05-20T21:22:52.493Z,19.51
2023-05-20T21:25:19.468Z,19.47
2023-05-20T21:27:47.096Z,19.47
2023-05-20T21:32:42.878Z,19.41
2023-05-20T21:35:10.084Z,19.35
2023-05-20T21:37:37.038Z,19.35
2023-05-20T21:40:04.109Z,19.31
2023-05-20T21:42:32.765Z,19.27
2023-05-20T21:44:59.793Z,19.24
2023-05-20T21:47:26.716Z,19.24
2023-05-20T21:49:53.582Z,19.25
2023-05-20T21:52:20.504Z,19.23
2023-05-20T21:54:47.325Z,19.20
2023-05-20T21:57:14.239Z,19.18
2023-05-20T21:59:41.218Z,19.18
2023-05-20T22:02:08.720Z,19.16
2023-05-20T22:04:35.830Z,19.15
2023-05-20T22:07:02.817Z,19.14
2023-05-20T22:09:29.743Z,19.15
2023-05-20T22:11:56.677Z,19.17
2023-05-20T22:14:24.290Z,19.16
2023-05-20T22:16:52.016Z,19.17
2023-05-20T22:19:19.243Z,19.17
2023-05-20T22:21:50.578Z,19.18
2023-05-20T22:24:18.452Z,19.19
2023-05-20T22:26:45.664Z,19.19
2023-05-20T22:29:12.608Z,19.18
2023-05-20T22:31:39.725Z,19.18
2023-05-20T22:34:06.808Z,19.15
2023-05-20T22:36:34.303Z,19.13
2023-05-20T22:39:02.471Z,19.13
2023-05-20T22:41:29.548Z,19.05
2023-05-20T22:43:59.055Z,19.10
2023-05-20T22:46:26.381Z,19.09
2023-05-20T22:48:53.380Z,19.07
2023-05-20T22:51:21.430Z,19.07
2023-05-20T22:53:49.112Z,19.05
2023-05-20T22:56:16.862Z,19.02
2023-05-20T22:58:45.771Z,18.99
2023-05-20T23:01:13.382Z,18.96
2023-05-20T23:03:40.391Z,18.94
2023-05-20T23:06:07.420Z,18.90
2023-05-20T23:08:34.268Z,18.90
2023-05-20T23:11:01.360Z,18.84
2023-05-20T23:13:28.322Z,18.80
2023-05-20T23:15:55.208Z,18.76
2023-05-20T23:18:22.448Z,18.77
2023-05-20T23:20:50.349Z,18.76
2023-05-20T23:23:19.281Z,18.74
2023-05-20T23:25:51.964Z,18.72
2023-05-20T23:28:19.011Z,18.70
2023-05-20T23:30:46.127Z,18.69
2023-05-20T23:33:13.190Z,18.66
2023-05-20T23:35:40.627Z,18.64
2023-05-20T23:38:07.755Z,18.62
2023-05-20T23:40:34.685Z,18.63
2023-05-20T23:43:01.589Z,18.61
2023-05-20T23:45:28.801Z,18.58
2023-05-20T23:47:55.805Z,18.56
2023-05-20T23:50:22.769Z,18.61
2023-05-20T23:52:49.679Z,18.61
2023-05-20T23:55:18.406Z,18.64
2023-05-20T23:57:45.426Z,18.63
